Time;durP1;ratioP1;P1;durP2;ratioP2;P2;SDS_P1;SDS_P2;PMS_P1;PMS_P2;Temp;Humidity;BMP_temperature;BMP_pressure;BME280_temperature;BME280_humidity;BME280_pressure;Samples;Min_cycle;Max_cycle;Signal;HPM_P1;HPM_P2
2023/06/21 00:01:03;;;;;;;6.93;3.20;;;21.70;99.90;;;;;;5021622;28;20730;-33
2023/06/21 00:10:13;;;;;;;7.28;3.25;;;21.30;99.90;;;;;;5024400;28;20406;-34
2023/06/21 00:12:38;;;;;;;6.13;3.17;;;21.40;99.90;;;;;;5023328;28;20030;-36
2023/06/21 00:15:04;;;;;;;6.30;3.15;;;21.50;99.90;;;;;;5024326;28;20036;-40
2023/06/21 00:17:30;;;;;;;5.10;3.03;;;21.50;99.90;;;;;;5023009;28;20040;-36
2023/06/21 00:19:59;;;;;;;8.07;3.35;;;21.50;99.90;;;;;;5019172;28;20042;-39
2023/06/21 00:22:25;;;;;;;6.13;2.80;;;21.50;99.90;;;;;;5021485;28;20029;-38
2023/06/21 00:24:51;;;;;;;6.07;2.97;;;21.30;99.90;;;;;;5025287;28;20499;-36
2023/06/21 00:27:18;;;;;;;7.43;3.50;;;21.20;99.90;;;;;;5021136;28;20060;-41
2023/06/21 00:29:43;;;;;;;6.95;2.95;;;21.20;99.90;;;;;;5023407;28;20073;-41
2023/06/21 00:32:09;;;;;;;6.90;2.83;;;20.90;99.90;;;;;;5022767;28;20034;-41
2023/06/21 00:34:35;;;;;;;6.55;3.47;;;20.80;99.90;;;;;;5026622;28;20503;-41
2023/06/21 00:37:04;;;;;;;9.10;2.88;;;20.80;99.90;;;;;;5023404;28;20120;-36
2023/06/21 00:39:30;;;;;;;7.88;3.28;;;20.80;99.90;;;;;;5007990;28;20418;-40
2023/06/21 00:41:56;;;;;;;6.72;3.63;;;20.60;99.90;;;;;;5024170;28;20100;-38
2023/06/21 00:44:21;;;;;;;6.50;3.25;;;20.50;99.90;;;;;;5007348;28;20061;-41
2023/06/21 00:46:49;;;;;;;6.68;3.25;;;20.20;99.90;;;;;;5024195;28;20049;-41
2023/06/21 00:49:15;;;;;;;5.05;3.33;;;20.40;99.90;;;;;;5025269;28;20029;-40
2023/06/21 00:51:42;;;;;;;8.40;3.10;;;20.50;99.90;;;;;;5020748;28;20075;-39
2023/06/21 00:54:15;;;;;;;7.43;2.88;;;20.60;99.90;;;;;;5019741;28;20025;-40
2023/06/21 00:56:42;;;;;;;6.72;3.20;;;20.60;99.90;;;;;;5020867;28;20041;-39
2023/06/21 00:59:09;;;;;;;6.57;3.40;;;20.70;99.90;;;;;;5021235;28;20120;-41
2023/06/21 01:01:36;;;;;;;7.97;3.10;;;20.60;99.90;;;;;;5016607;28;20120;-41
2023/06/21 01:04:02;;;;;;;5.18;3.00;;;20.50;99.90;;;;;;5020468;28;20072;-42
2023/06/21 01:06:50;;;;;;;5.95;2.85;;;20.60;99.90;;;;;;5020996;28;20126;-41
2023/06/21 01:09:53;;;;;;;5.90;3.20;;;20.50;99.90;;;;;;5019434;28;20025;-42
2023/06/21 01:12:50;;;;;;;5.43;2.97;;;20.50;99.90;;;;;;5022252;28;20044;-42
2023/06/21 01:15:20;;;;;;;7.35;2.83;;;20.40;99.90;;;;;;5023314;28;20177;-40
2023/06/21 01:17:51;;;;;;;4.78;2.92;;;20.40;99.90;;;;;;5022894;28;20511;-42
2023/06/21 01:20:24;;;;;;;7.68;3.15;;;20.50;99.90;;;;;;5022439;28;20041;-41
2023/06/21 01:23:29;;;;;;;9.68;3.97;;;20.40;99.90;;;;;;5024268;28;20030;-40
2023/06/21 01:26:22;;;;;;;10.90;3.92;;;20.40;99.90;;;;;;5024516;28;20044;-32
2023/06/21 01:29:11;;;;;;;7.25;3.50;;;20.40;99.90;;;;;;5025756;28;20024;-30
2023/06/21 01:31:39;;;;;;;7.60;3.40;;;20.40;99.90;;;;;;5021035;28;20037;-30
2023/06/21 01:34:05;;;;;;;8.95;3.33;;;20.30;99.90;;;;;;5026421;28;20036;-30
2023/06/21 01:36:32;;;;;;;6.15;3.00;;;20.20;99.90;;;;;;5028628;28;20033;-30
2023/06/21 01:38:57;;;;;;;6.85;3.22;;;20.20;99.90;;;;;;5027814;28;20459;-30
2023/06/21 01:41:25;;;;;;;5.10;2.95;;;20.10;99.90;;;;;;5031959;28;20027;-30
2023/06/21 01:43:52;;;;;;;5.97;3.10;;;19.90;99.90;;;;;;5026916;28;20368;-30
2023/06/21 01:46:21;;;;;;;6.43;2.85;;;19.80;99.90;;;;;;5027994;28;20036;-30
2023/06/21 01:48:48;;;;;;;8.75;3.00;;;19.80;99.90;;;;;;5026510;28;20180;-32
2023/06/21 01:51:15;;;;;;;7.25;3.47;;;19.80;99.90;;;;;;5028905;28;20037;-35
2023/06/21 01:53:41;;;;;;;9.18;3.22;;;19.80;99.90;;;;;;5029789;28;20033;-32
2023/06/21 01:56:11;;;;;;;5.68;3.20;;;19.80;99.90;;;;;;5026869;28;20034;-31
2023/06/21 01:58:36;;;;;;;7.82;3.60;;;19.80;99.90;;;;;;5027200;28;20041;-30
2023/06/21 02:01:02;;;;;;;7.97;3.47;;;19.60;99.90;;;;;;5010648;28;20049;-30
2023/06/21 02:03:30;;;;;;;7.32;3.17;;;19.70;99.90;;;;;;5025839;28;20029;-32
2023/06/21 02:05:57;;;;;;;5.25;3.45;;;19.70;99.90;;;;;;5026272;28;20494;-33
2023/06/21 02:08:23;;;;;;;7.20;3.47;;;19.80;99.90;;;;;;5023144;28;20037;-30
2023/06/21 02:10:49;;;;;;;6.18;3.20;;;19.60;99.90;;;;;;5027162;28;20121;-30
2023/06/21 02:13:16;;;;;;;8.60;3.75;;;19.50;99.90;;;;;;5028210;28;20095;-33
2023/06/21 02:15:41;;;;;;;7.68;3.20;;;19.50;99.90;;;;;;5026089;28;20037;-33
2023/06/21 02:18:09;;;;;;;10.35;3.05;;;19.50;99.90;;;;;;5027614;28;20026;-30
2023/06/21 02:20:35;;;;;;;10.50;3.57;;;19.50;99.90;;;;;;5023848;28;20474;-30
2023/06/21 02:23:01;;;;;;;6.40;3.22;;;19.60;99.90;;;;;;5009823;28;20292;-31
2023/06/21 02:25:27;;;;;;;6.57;3.00;;;19.60;99.90;;;;;;5026294;28;20029;-30
2023/06/21 02:27:53;;;;;;;8.35;3.65;;;19.60;99.90;;;;;;5026241;28;20038;-30
2023/06/21 02:30:19;;;;;;;8.20;3.40;;;19.60;99.90;;;;;;5026089;28;20360;-30
2023/06/21 02:32:44;;;;;;;6.68;3.20;;;19.50;99.90;;;;;;5024420;28;20076;-31
2023/06/21 02:35:10;;;;;;;9.32;4.28;;;19.50;99.90;;;;;;5024898;28;20440;-32
2023/06/21 02:37:36;;;;;;;6.75;2.90;;;19.50;99.90;;;;;;5028468;28;20025;-32
2023/06/21 02:40:09;;;;;;;9.23;3.50;;;19.60;99.90;;;;;;5024874;28;20034;-34
2023/06/21 02:42:36;;;;;;;5.53;2.95;;;19.60;99.90;;;;;;5024174;28;21333;-32
2023/06/21 02:45:01;;;;;;;8.80;3.22;;;19.60;99.90;;;;;;5023240;28;20053;-33
2023/06/21 02:47:27;;;;;;;8.73;3.63;;;19.60;99.90;;;;;;5024961;28;20061;-32
2023/06/21 02:49:53;;;;;;;8.43;3.72;;;19.40;99.90;;;;;;5028934;28;20367;-32
2023/06/21 02:52:18;;;;;;;9.77;3.63;;;19.10;99.90;;;;;;5024539;28;20025;-32
2023/06/21 02:54:44;;;;;;;6.70;3.42;;;19.10;99.90;;;;;;5023782;28;20792;-35
2023/06/21 02:57:10;;;;;;;11.10;4.07;;;19.10;99.90;;;;;;5023923;28;20029;-36
2023/06/21 02:59:36;;;;;;;7.90;3.58;;;19.10;99.90;;;;;;5025378;28;20045;-35
2023/06/21 03:02:01;;;;;;;8.25;3.28;;;19.10;99.90;;;;;;5023741;28;20041;-32
2023/06/21 03:04:27;;;;;;;8.40;3.50;;;19.10;99.90;;;;;;5025066;28;20151;-33
2023/06/21 03:06:53;;;;;;;8.73;3.35;;;19.10;99.90;;;;;;5026994;28;20122;-32
2023/06/21 03:09:18;;;;;;;8.55;3.53;;;19.10;99.90;;;;;;5025699;28;20076;-32
2023/06/21 03:11:45;;;;;;;8.75;4.10;;;19.10;99.90;;;;;;5024970;28;20032;-32
2023/06/21 03:14:11;;;;;;;9.63;3.97;;;19.10;99.90;;;;;;5024390;28;20025;-32
2023/06/21 03:16:36;;;;;;;7.35;3.60;;;18.90;99.90;;;;;;5023512;28;20029;-32
2023/06/21 03:19:02;;;;;;;11.15;3.83;;;18.90;99.90;;;;;;5025774;28;20499;-33
2023/06/21 03:21:28;;;;;;;8.30;3.42;;;18.60;99.90;;;;;;5025445;28;20040;-32
2023/06/21 03:23:53;;;;;;;6.50;3.22;;;18.40;99.90;;;;;;5025611;28;20116;-32
2023/06/21 03:26:19;;;;;;;11.65;3.30;;;18.40;99.90;;;;;;5024789;28;20140;-33
2023/06/21 03:28:44;;;;;;;8.23;3.50;;;18.40;99.90;;;;;;5025323;28;20033;-34
2023/06/21 03:31:10;;;;;;;11.55;3.55;;;18.30;99.90;;;;;;5020426;28;20459;-33
2023/06/21 03:33:36;;;;;;;7.38;3.60;;;18.30;99.90;;;;;;5024304;28;20029;-35
2023/06/21 03:36:03;;;;;;;6.93;3.63;;;18.20;99.90;;;;;;5024553;28;20033;-33
2023/06/21 03:38:29;;;;;;;8.02;3.75;;;18.30;99.90;;;;;;5025044;28;20514;-32
2023/06/21 03:40:55;;;;;;;8.40;3.65;;;18.40;99.90;;;;;;5024959;28;20044;-35
2023/06/21 03:43:21;;;;;;;7.97;3.70;;;18.50;99.90;;;;;;5024910;28;20876;-41
2023/06/21 03:45:46;;;;;;;8.77;3.67;;;18.50;99.90;;;;;;5024882;28;20382;-42
2023/06/21 03:48:12;;;;;;;5.88;3.30;;;18.50;99.90;;;;;;5023655;28;20513;-41
2023/06/21 03:50:38;;;;;;;9.13;3.70;;;18.50;99.90;;;;;;5024019;28;20051;-33
2023/06/21 03:53:03;;;;;;;7.10;3.67;;;18.60;99.90;;;;;;5022859;28;20041;-42
2023/06/21 03:55:29;;;;;;;9.80;3.75;;;18.60;99.90;;;;;;5026255;28;20022;-41
2023/06/21 03:57:55;;;;;;;7.20;3.92;;;18.70;99.90;;;;;;5026084;28;20064;-38
2023/06/21 04:00:21;;;;;;;6.70;3.55;;;18.70;99.90;;;;;;5024189;28;20053;-39
2023/06/21 04:02:46;;;;;;;7.43;3.72;;;18.60;99.90;;;;;;5022998;28;20045;-39
2023/06/21 04:05:12;;;;;;;7.40;3.90;;;18.50;99.90;;;;;;5023453;28;20033;-41
2023/06/21 04:07:41;;;;;;;9.73;4.10;;;18.60;99.90;;;;;;5027139;28;20026;-41
2023/06/21 04:10:08;;;;;;;12.77;4.35;;;18.60;99.90;;;;;;5026162;28;20043;-41
2023/06/21 04:12:34;;;;;;;8.13;3.80;;;18.70;99.90;;;;;;5022670;28;20399;-39
2023/06/21 04:15:03;;;;;;;11.82;4.85;;;18.70;99.90;;;;;;5024428;28;20042;-41
2023/06/21 04:17:29;;;;;;;10.38;4.28;;;18.70;99.90;;;;;;5023476;28;20043;-38
2023/06/21 04:19:55;;;;;;;6.93;3.80;;;18.80;99.90;;;;;;5021115;28;20498;-36
2023/06/21 04:22:23;;;;;;;6.38;3.88;;;18.90;99.90;;;;;;5023791;28;20028;-41
2023/06/21 04:24:49;;;;;;;9.20;4.00;;;18.90;99.90;;;;;;5021972;28;20041;-41
2023/06/21 04:27:15;;;;;;;8.15;4.43;;;19.00;99.90;;;;;;5020533;28;20037;-38
2023/06/21 04:29:41;;;;;;;9.73;4.22;;;19.00;99.90;;;;;;5023211;28;20521;-42
2023/06/21 04:32:08;;;;;;;9.52;3.88;;;19.10;99.90;;;;;;5022061;28;20378;-39
2023/06/21 04:34:34;;;;;;;8.00;4.18;;;19.10;99.90;;;;;;5023476;28;20087;-42
2023/06/21 04:37:05;;;;;;;8.32;4.50;;;19.20;99.90;;;;;;5025332;28;20029;-42
2023/06/21 04:39:30;;;;;;;9.80;4.60;;;19.20;99.90;;;;;;5024241;28;20157;-41
2023/06/21 04:41:58;;;;;;;10.25;4.32;;;19.20;99.90;;;;;;5023047;28;20037;-40
2023/06/21 04:44:27;;;;;;;7.70;3.93;;;19.20;99.90;;;;;;5005033;28;20501;-41
2023/06/21 04:46:56;;;;;;;9.32;3.97;;;19.20;99.90;;;;;;5025206;28;20120;-41
2023/06/21 04:49:25;;;;;;;8.82;4.40;;;19.20;99.90;;;;;;5025560;28;20041;-42
2023/06/21 04:51:58;;;;;;;10.35;4.43;;;19.10;99.90;;;;;;5021519;28;20663;-41
2023/06/21 04:54:28;;;;;;;8.10;4.68;;;19.20;99.90;;;;;;5024708;28;20029;-39
2023/06/21 04:56:54;;;;;;;10.80;4.65;;;19.30;99.90;;;;;;5021147;28;20018;-36
2023/06/21 04:59:19;;;;;;;7.72;4.47;;;19.30;99.90;;;;;;5027835;28;20025;-40
2023/06/21 05:01:45;;;;;;;13.18;5.53;;;19.40;99.90;;;;;;5017284;28;20172;-39
2023/06/21 05:04:11;;;;;;;6.80;4.50;;;19.40;99.90;;;;;;5006509;28;20032;-37
2023/06/21 05:06:37;;;;;;;8.52;5.10;;;19.40;99.90;;;;;;5019936;28;20033;-41
2023/06/21 05:09:04;;;;;;;9.93;4.38;;;19.50;99.90;;;;;;5025803;28;20025;-40
2023/06/21 05:11:30;;;;;;;8.35;5.00;;;19.50;99.90;;;;;;5026042;28;20069;-39
2023/06/21 05:13:55;;;;;;;10.88;5.13;;;19.60;99.90;;;;;;5028726;28;20164;-38
2023/06/21 05:16:21;;;;;;;10.00;5.05;;;19.50;99.90;;;;;;5026156;28;20029;-41
2023/06/21 05:18:46;;;;;;;10.95;4.97;;;19.40;99.90;;;;;;5029556;28;20033;-41
2023/06/21 05:21:12;;;;;;;14.70;5.45;;;19.40;99.90;;;;;;5028262;28;20506;-40
2023/06/21 05:23:38;;;;;;;8.18;4.60;;;19.40;99.90;;;;;;5029087;28;20057;-41
2023/06/21 05:26:04;;;;;;;9.10;4.63;;;19.40;99.90;;;;;;5026918;28;20021;-41
2023/06/21 05:28:29;;;;;;;12.85;5.28;;;19.50;99.90;;;;;;5022053;28;20039;-41
2023/06/21 05:30:55;;;;;;;13.43;5.10;;;19.50;99.90;;;;;;5022353;28;20537;-40
2023/06/21 05:33:20;;;;;;;10.00;5.05;;;19.60;99.90;;;;;;5022163;28;20466;-40
2023/06/21 05:35:46;;;;;;;10.10;5.00;;;19.70;99.90;;;;;;5026947;28;20026;-40
2023/06/21 05:38:12;;;;;;;13.73;5.30;;;19.80;99.90;;;;;;5010050;28;20487;-41
2023/06/21 05:40:37;;;;;;;10.93;5.28;;;19.90;99.90;;;;;;5023285;28;20036;-41
2023/06/21 05:43:04;;;;;;;8.23;4.95;;;20.00;99.90;;;;;;5025873;28;20069;-41
2023/06/21 05:45:29;;;;;;;17.90;5.50;;;20.10;99.90;;;;;;5010911;28;20132;-41
2023/06/21 05:47:59;;;;;;;9.63;5.43;;;20.20;99.90;;;;;;5023701;28;20045;-39
2023/06/21 05:50:25;;;;;;;13.68;5.55;;;20.30;99.90;;;;;;5023210;28;20026;-40
2023/06/21 05:52:50;;;;;;;13.98;5.35;;;20.40;99.90;;;;;;5024336;28;20030;-39
2023/06/21 05:55:16;;;;;;;12.88;5.32;;;20.40;99.90;;;;;;5026436;28;20033;-39
2023/06/21 05:57:43;;;;;;;9.68;4.90;;;20.50;99.90;;;;;;5024402;28;20072;-39
2023/06/21 06:00:09;;;;;;;9.40;4.85;;;20.60;99.90;;;;;;5026243;28;20033;-38
2023/06/21 06:02:35;;;;;;;13.02;5.20;;;20.80;99.90;;;;;;5025057;28;20029;-41
2023/06/21 06:05:01;;;;;;;12.30;5.65;;;21.00;99.90;;;;;;5027975;28;20025;-33
2023/06/21 06:07:27;;;;;;;9.45;4.88;;;21.10;99.90;;;;;;5008381;28;20359;-33
2023/06/21 06:09:53;;;;;;;9.02;5.05;;;21.00;99.90;;;;;;5024446;28;20152;-33
2023/06/21 06:12:21;;;;;;;12.65;4.95;;;21.10;99.90;;;;;;5026296;28;20083;-35
2023/06/21 06:14:47;;;;;;;12.25;5.50;;;21.10;99.90;;;;;;5026031;28;20131;-34
2023/06/21 06:17:13;;;;;;;11.43;4.60;;;21.20;99.90;;;;;;5026451;28;20065;-34
2023/06/21 06:19:38;;;;;;;9.82;5.25;;;21.40;99.90;;;;;;5026636;28;20040;-32
2023/06/21 06:22:04;;;;;;;10.10;5.00;;;21.50;99.90;;;;;;5025822;28;20049;-34
2023/06/21 06:24:30;;;;;;;12.05;4.85;;;21.60;99.90;;;;;;5024831;28;20090;-36
2023/06/21 06:26:55;;;;;;;10.65;5.35;;;21.80;99.90;;;;;;5006709;28;21941;-34
2023/06/21 06:29:22;;;;;;;10.40;5.68;;;22.00;99.90;;;;;;5025876;28;20022;-33
2023/06/21 06:31:48;;;;;;;12.55;5.45;;;22.20;99.90;;;;;;5025935;28;20022;-34
2023/06/21 06:34:14;;;;;;;11.10;5.47;;;22.40;99.90;;;;;;5024312;28;20049;-33
2023/06/21 06:36:39;;;;;;;11.20;5.75;;;22.50;99.90;;;;;;5026529;28;20134;-35
2023/06/21 06:39:06;;;;;;;10.95;4.93;;;22.60;99.90;;;;;;5026566;28;20025;-33
2023/06/21 06:41:32;;;;;;;10.77;5.32;;;22.70;99.90;;;;;;5025836;28;20463;-34
2023/06/21 06:43:58;;;;;;;10.27;5.22;;;22.80;99.90;;;;;;5024668;28;20259;-33
2023/06/21 06:46:24;;;;;;;10.60;5.53;;;23.00;99.90;;;;;;5026292;28;20037;-32
2023/06/21 06:48:49;;;;;;;9.27;5.20;;;23.10;99.90;;;;;;5027256;28;20025;-33
2023/06/21 06:51:15;;;;;;;9.15;5.68;;;23.10;99.90;;;;;;5027197;28;20120;-34
2023/06/21 06:53:41;;;;;;;11.40;5.75;;;23.20;99.90;;;;;;5028063;28;20056;-36
2023/06/21 06:56:07;;;;;;;10.70;5.75;;;23.40;99.90;;;;;;5025404;28;20430;-33
2023/06/21 06:58:35;;;;;;;10.10;6.20;;;23.60;99.90;;;;;;5026134;28;20079;-32
2023/06/21 07:01:05;;;;;;;9.65;5.90;;;23.80;99.90;;;;;;5026526;28;20037;-36
2023/06/21 07:03:31;;;;;;;12.02;5.97;;;24.00;99.90;;;;;;5026379;28;20026;-37
2023/06/21 07:05:57;;;;;;;9.75;5.80;;;24.30;99.90;;;;;;5024315;28;20087;-34
2023/06/21 07:08:22;;;;;;;10.40;6.78;;;24.60;99.90;;;;;;5025355;28;20025;-32
2023/06/21 07:10:48;;;;;;;9.88;6.32;;;24.70;99.90;;;;;;5023685;28;20746;-34
2023/06/21 07:13:13;;;;;;;9.90;5.40;;;24.70;99.90;;;;;;5022780;28;20029;-41
2023/06/21 07:15:39;;;;;;;9.52;5.90;;;24.90;99.90;;;;;;5023676;28;20029;-41
2023/06/21 07:18:04;;;;;;;10.95;6.47;;;25.20;99.90;;;;;;5025921;28;20037;-42
2023/06/21 07:20:31;;;;;;;12.40;6.22;;;25.10;99.90;;;;;;5025478;28;20037;-37
2023/06/21 07:22:57;;;;;;;9.35;6.45;;;24.70;99.90;;;;;;5026122;28;20040;-39
2023/06/21 07:25:23;;;;;;;11.55;6.38;;;24.80;99.90;;;;;;5022306;28;20029;-41
2023/06/21 07:27:49;;;;;;;9.65;5.97;;;24.60;99.90;;;;;;5025603;28;20541;-40
2023/06/21 07:30:16;;;;;;;7.15;5.88;;;24.80;99.90;;;;;;5026866;28;20032;-40
2023/06/21 07:32:42;;;;;;;8.55;6.18;;;24.80;99.90;;;;;;5021788;28;20721;-42
2023/06/21 07:35:08;;;;;;;10.52;6.82;;;24.70;99.90;;;;;;5024016;28;20026;-40
2023/06/21 07:37:34;;;;;;;11.30;6.53;;;24.60;99.90;;;;;;5024143;28;20043;-42
2023/06/21 07:40:00;;;;;;;10.60;6.75;;;24.50;99.90;;;;;;5025992;28;20041;-41
2023/06/21 07:42:26;;;;;;;11.65;7.15;;;24.50;99.90;;;;;;5024747;28;20046;-40
2023/06/21 07:44:53;;;;;;;10.00;6.45;;;24.70;99.90;;;;;;5023084;28;20042;-42
2023/06/21 07:47:19;;;;;;;11.60;7.43;;;24.70;99.90;;;;;;5023679;28;20029;-38
2023/06/21 07:49:45;;;;;;;9.48;6.55;;;24.90;99.90;;;;;;5004597;28;20031;-42
2023/06/21 07:52:11;;;;;;;11.85;7.03;;;24.90;99.90;;;;;;5021348;28;20029;-38
2023/06/21 07:54:37;;;;;;;11.38;6.93;;;24.90;99.90;;;;;;5024775;28;20030;-42
2023/06/21 07:57:03;;;;;;;10.38;6.50;;;24.90;99.90;;;;;;5008099;28;20116;-40
2023/06/21 07:59:29;;;;;;;10.68;6.45;;;24.70;99.90;;;;;;5019010;28;20041;-41
2023/06/21 08:01:55;;;;;;;10.55;7.32;;;24.90;99.90;;;;;;5026112;28;20048;-40
2023/06/21 08:04:20;;;;;;;8.80;6.28;;;24.90;99.90;;;;;;5029262;28;20037;-40
2023/06/21 08:06:46;;;;;;;11.60;7.07;;;25.20;99.90;;;;;;5032437;28;20029;-42
2023/06/21 08:09:11;;;;;;;10.57;6.72;;;25.10;99.90;;;;;;5027831;28;20021;-41
2023/06/21 08:11:37;;;;;;;10.30;6.38;;;25.10;99.90;;;;;;5024153;28;20638;-40
2023/06/21 08:14:02;;;;;;;7.22;6.18;;;25.20;99.90;;;;;;5022269;28;20411;-42
2023/06/21 08:16:28;;;;;;;7.40;5.85;;;25.30;99.90;;;;;;5022963;28;20045;-41
2023/06/21 08:18:54;;;;;;;10.35;5.72;;;25.50;99.90;;;;;;5022992;28;20037;-42
2023/06/21 08:21:19;;;;;;;7.35;5.97;;;25.20;99.90;;;;;;5008146;28;20033;-41
2023/06/21 08:23:45;;;;;;;7.50;4.75;;;24.90;99.90;;;;;;5025661;28;20241;-41
2023/06/21 08:26:11;;;;;;;7.65;5.57;;;25.00;99.90;;;;;;5025486;28;20025;-41
2023/06/21 08:28:36;;;;;;;9.23;6.07;;;25.30;99.90;;;;;;5024305;28;20026;-41
2023/06/21 08:31:02;;;;;;;8.20;5.80;;;25.40;99.90;;;;;;5024742;28;20029;-41
2023/06/21 08:33:28;;;;;;;7.95;5.55;;;25.40;99.90;;;;;;5023168;28;20033;-41
2023/06/21 08:35:53;;;;;;;10.30;5.82;;;25.60;99.90;;;;;;5022809;28;20033;-41
2023/06/21 08:38:19;;;;;;;11.02;6.03;;;25.80;99.90;;;;;;5022873;28;20147;-41
2023/06/21 08:40:46;;;;;;;9.43;5.93;;;26.00;99.90;;;;;;5022850;28;20029;-41
2023/06/21 08:43:11;;;;;;;8.95;5.57;;;26.40;99.90;;;;;;5021855;28;20050;-42
2023/06/21 08:45:37;;;;;;;7.60;5.97;;;26.60;99.90;;;;;;5024631;28;20040;-39
2023/06/21 08:48:05;;;;;;;10.25;6.30;;;26.80;99.90;;;;;;5024536;28;20060;-42
2023/06/21 08:50:36;;;;;;;8.38;6.07;;;26.80;99.90;;;;;;5018242;28;20030;-42
2023/06/21 08:53:05;;;;;;;9.00;6.07;;;26.80;99.90;;;;;;5023650;28;20096;-40
2023/06/21 08:55:35;;;;;;;7.38;5.70;;;26.80;99.90;;;;;;5022881;28;20018;-41
2023/06/21 08:58:05;;;;;;;8.38;5.35;;;26.70;99.90;;;;;;5022899;28;20124;-38
2023/06/21 09:00:41;;;;;;;8.73;5.20;;;26.70;99.90;;;;;;5022911;28;20563;-41
2023/06/21 09:03:15;;;;;;;10.57;6.22;;;26.70;99.90;;;;;;5004653;28;20033;-38
2023/06/21 09:05:54;;;;;;;7.82;5.55;;;26.90;99.90;;;;;;5024971;28;20029;-40
2023/06/21 09:08:20;;;;;;;8.05;5.80;;;26.90;99.90;;;;;;5026487;28;20037;-41
2023/06/21 09:10:51;;;;;;;10.95;5.90;;;26.90;99.90;;;;;;5020916;28;20026;-38
2023/06/21 09:13:19;;;;;;;6.65;5.13;;;26.90;99.90;;;;;;4999885;28;20462;-40
2023/06/21 09:15:47;;;;;;;7.65;5.40;;;27.10;99.90;;;;;;5025323;28;20021;-40
2023/06/21 09:18:13;;;;;;;7.82;5.38;;;27.20;99.90;;;;;;5024340;28;20034;-41
2023/06/21 09:20:39;;;;;;;6.00;5.30;;;27.50;99.90;;;;;;5007077;28;20490;-41
2023/06/21 09:23:05;;;;;;;9.85;5.55;;;27.80;99.90;;;;;;5022269;28;20029;-41
2023/06/21 09:25:31;;;;;;;10.40;5.97;;;27.30;99.90;;;;;;5022946;28;20060;-41
2023/06/21 09:27:57;;;;;;;7.72;6.00;;;26.80;99.90;;;;;;5025285;28;20029;-38
2023/06/21 09:30:23;;;;;;;10.40;6.05;;;26.60;99.90;;;;;;5022193;28;20017;-40
2023/06/21 09:32:52;;;;;;;7.15;5.38;;;26.30;99.90;;;;;;5022848;28;20033;-42
2023/06/21 09:35:24;;;;;;;9.60;5.90;;;26.20;99.90;;;;;;5030942;28;20025;-31
2023/06/21 09:37:50;;;;;;;6.70;5.15;;;26.40;99.90;;;;;;5025511;28;20110;-31
2023/06/21 09:40:16;;;;;;;7.38;5.78;;;26.20;99.90;;;;;;5029235;28;20061;-34
2023/06/21 09:42:44;;;;;;;7.10;5.03;;;26.20;99.90;;;;;;5024292;28;20391;-31
2023/06/21 09:45:12;;;;;;;8.07;5.20;;;25.90;99.90;;;;;;5023630;28;20360;-34
2023/06/21 09:47:43;;;;;;;34.55;5.75;;;25.70;99.90;;;;;;5024122;28;20064;-31
2023/06/21 09:50:10;;;;;;;12.55;4.35;;;24.10;99.90;;;;;;5028760;28;20025;-37
2023/06/21 09:52:36;;;;;;;30.75;6.43;;;21.30;99.90;;;;;;5025928;28;20025;-31
2023/06/21 09:55:02;;;;;;;19.23;5.28;;;21.00;99.90;;;;;;5029938;28;20517;-31
2023/06/21 09:57:29;;;;;;;20.30;5.22;;;21.00;99.90;;;;;;5029444;28;20486;-33
2023/06/21 09:59:56;;;;;;;16.27;4.05;;;20.90;99.90;;;;;;5030885;28;20036;-31
2023/06/21 10:02:22;;;;;;;17.73;4.15;;;21.30;99.90;;;;;;5030310;28;20037;-32
2023/06/21 10:04:50;;;;;;;18.20;4.15;;;21.20;99.90;;;;;;5023539;28;20116;-31
2023/06/21 10:07:19;;;;;;;;;;;21.00;99.90;;;;;;5027867;28;20045;-31
2023/06/21 10:09:48;;;;;;;14.07;3.35;;;20.80;99.90;;;;;;5027399;28;20389;-31
2023/06/21 10:12:15;;;;;;;13.15;3.90;;;20.50;99.90;;;;;;5030619;28;20030;-31
2023/06/21 10:14:42;;;;;;;19.48;3.97;;;20.30;99.90;;;;;;5027500;28;20036;-33
2023/06/21 10:17:08;;;;;;;15.07;4.35;;;19.70;99.90;;;;;;5030079;28;20482;-30
2023/06/21 10:19:35;;;;;;;13.68;4.10;;;19.40;99.90;;;;;;5030940;28;20493;-31
2023/06/21 10:22:14;;;;;;;11.95;3.85;;;18.90;99.90;;;;;;5007160;28;20120;-31
2023/06/21 10:24:45;;;;;;;14.38;4.43;;;18.50;99.90;;;;;;5027677;28;20052;-31
2023/06/21 10:27:12;;;;;;;12.60;3.80;;;18.40;99.90;;;;;;5026538;28;20045;-32
2023/06/21 10:29:41;;;;;;;12.07;4.18;;;18.40;99.90;;;;;;5029543;28;20490;-32
2023/06/21 10:32:07;;;;;;;12.63;5.72;;;18.40;99.90;;;;;;5009173;28;20116;-31
2023/06/21 10:35:00;;;;;;;10.43;3.63;;;18.50;99.90;;;;;;5032324;28;20029;-31
2023/06/21 10:37:36;;;;;;;11.82;3.50;;;18.80;99.90;;;;;;5031115;28;20486;-30
2023/06/21 10:40:09;;;;;;;10.38;3.13;;;19.10;99.90;;;;;;5028192;28;20065;-31
2023/06/21 10:42:36;;;;;;;9.02;3.30;;;19.30;99.90;;;;;;5029253;28;20092;-34
2023/06/21 10:45:09;;;;;;;10.68;3.70;;;19.60;99.90;;;;;;5022751;28;20087;-33
2023/06/21 10:47:37;;;;;;;11.35;3.85;;;19.50;99.90;;;;;;5028708;28;20467;-32
2023/06/21 10:50:05;;;;;;;7.55;3.35;;;19.10;99.90;;;;;;5014504;28;20021;-31
2023/06/21 10:52:30;;;;;;;8.30;3.80;;;19.10;99.90;;;;;;5027250;28;20065;-33
2023/06/21 10:54:57;;;;;;;13.00;3.78;;;19.10;99.90;;;;;;5026458;28;20045;-31
2023/06/21 10:57:28;;;;;;;10.05;3.80;;;19.10;99.90;;;;;;5026144;28;20042;-32
2023/06/21 10:59:56;;;;;;;12.57;3.88;;;19.00;99.90;;;;;;5028420;28;20108;-31
2023/06/21 11:02:22;;;;;;;10.85;3.40;;;19.00;99.90;;;;;;5028962;28;20068;-31
2023/06/21 11:05:17;;;;;;;10.80;3.75;;;19.10;99.90;;;;;;5029458;28;20077;-31
2023/06/21 11:07:54;;;;;;;9.55;3.08;;;19.30;99.90;;;;;;5031746;28;20126;-32
2023/06/21 11:10:46;;;;;;;9.40;3.80;;;19.50;99.90;;;;;;5027041;28;20386;-31
2023/06/21 11:13:13;;;;;;;11.18;3.72;;;19.60;99.90;;;;;;5026323;28;20032;-31
2023/06/21 11:15:41;;;;;;;12.50;3.08;;;19.90;99.90;;;;;;5028876;28;20044;-31
2023/06/21 11:18:18;;;;;;;9.90;3.58;;;20.10;99.90;;;;;;5029990;28;20495;-31
2023/06/21 11:20:48;;;;;;;8.83;3.67;;;20.30;99.90;;;;;;5026273;28;20403;-34
2023/06/21 11:23:18;;;;;;;9.88;4.05;;;20.70;99.90;;;;;;5027077;28;20096;-31
2023/06/21 11:25:50;;;;;;;9.93;3.40;;;21.00;99.90;;;;;;5028245;28;20036;-33
2023/06/21 11:28:19;;;;;;;12.00;3.53;;;21.00;99.90;;;;;;5027988;28;20489;-31
2023/06/21 11:31:06;;;;;;;13.55;3.42;;;21.20;99.90;;;;;;5025795;28;20026;-31
2023/06/21 11:33:43;;;;;;;11.90;3.75;;;21.40;99.90;;;;;;5026038;28;20022;-32
2023/06/21 11:36:09;;;;;;;12.70;3.75;;;21.50;99.90;;;;;;5024527;28;20029;-32
2023/06/21 11:38:36;;;;;;;9.75;3.45;;;21.70;99.90;;;;;;5030097;28;20090;-31
2023/06/21 11:41:22;;;;;;;13.00;3.30;;;21.90;99.90;;;;;;5027203;28;20026;-31
2023/06/21 11:43:57;;;;;;;10.32;3.33;;;22.00;99.90;;;;;;5027838;28;20038;-31
2023/06/21 11:46:26;;;;;;;10.63;3.55;;;22.50;99.90;;;;;;5027497;28;20041;-35
2023/06/21 11:48:58;;;;;;;11.43;3.30;;;22.50;99.90;;;;;;5023835;28;20025;-31
2023/06/21 11:51:24;;;;;;;8.50;3.10;;;22.40;99.90;;;;;;5027383;28;20039;-31
2023/06/21 11:53:51;;;;;;;11.05;3.45;;;22.30;99.90;;;;;;5023534;28;20034;-31
2023/06/21 11:56:18;;;;;;;9.98;3.10;;;22.40;99.90;;;;;;5025005;28;20037;-33
2023/06/21 11:58:49;;;;;;;12.55;3.42;;;22.80;99.90;;;;;;5027670;28;20100;-31
2023/06/21 12:01:15;;;;;;;9.00;3.38;;;23.10;99.90;;;;;;5014136;28;20040;-32
2023/06/21 12:03:41;;;;;;;10.88;3.75;;;23.10;99.90;;;;;;5026305;28;20026;-31
2023/06/21 12:06:07;;;;;;;9.25;3.53;;;23.30;99.90;;;;;;5024336;28;20504;-31
2023/06/21 12:08:35;;;;;;;10.60;3.67;;;23.50;99.90;;;;;;5026646;28;20051;-31
2023/06/21 12:11:05;;;;;;;10.55;3.47;;;23.50;99.90;;;;;;5028922;28;20382;-32
2023/06/21 12:13:34;;;;;;;11.00;2.83;;;23.50;99.90;;;;;;5026088;28;20039;-31
2023/06/21 12:16:02;;;;;;;12.23;3.40;;;23.80;99.90;;;;;;5026439;28;20040;-36
2023/06/21 12:18:29;;;;;;;11.32;3.15;;;23.90;99.90;;;;;;5027694;28;20022;-31
2023/06/21 12:20:58;;;;;;;9.30;3.08;;;23.90;99.90;;;;;;5022799;28;20034;-31
2023/06/21 12:23:25;;;;;;;14.38;3.38;;;24.20;99.90;;;;;;5008104;28;20551;-31
2023/06/21 12:25:53;;;;;;;12.93;3.90;;;24.20;99.90;;;;;;5006277;28;20025;-34
2023/06/21 12:28:20;;;;;;;10.05;3.45;;;24.30;99.90;;;;;;5012071;28;20079;-31
2023/06/21 12:30:51;;;;;;;12.15;2.92;;;24.40;99.90;;;;;;5027044;28;20029;-30
2023/06/21 12:33:17;;;;;;;9.15;3.17;;;24.60;99.90;;;;;;5026725;28;20040;-30
2023/06/21 12:35:44;;;;;;;9.30;3.40;;;25.00;99.90;;;;;;5024274;28;20682;-31
2023/06/21 12:38:15;;;;;;;12.80;3.72;;;25.10;99.90;;;;;;5028494;28;20030;-30
2023/06/21 12:41:00;;;;;;;10.73;3.15;;;25.20;99.90;;;;;;5024553;28;20112;-32
2023/06/21 12:43:35;;;;;;;11.38;3.28;;;25.50;99.90;;;;;;5008019;28;20042;-31
2023/06/21 12:46:03;;;;;;;10.75;3.38;;;25.50;99.90;;;;;;5023589;28;20040;-32
2023/06/21 12:48:28;;;;;;;10.73;2.95;;;25.50;99.90;;;;;;5025178;28;20082;-31
2023/06/21 12:50:55;;;;;;;10.55;3.30;;;25.80;99.90;;;;;;5028730;28;20034;-31
2023/06/21 12:53:25;;;;;;;14.90;3.40;;;26.00;99.90;;;;;;5022686;28;20087;-35